createdAt,value
2019-02-19T00:00:15.412Z,7.67
2019-02-19T00:02:42.429Z,7.15
2019-02-19T00:05:09.547Z,5.70
2019-02-19T00:07:36.609Z,8.70
2019-02-19T00:10:03.979Z,8.08
2019-02-19T00:12:30.991Z,7.50
2019-02-19T00:14:58.037Z,6.80
2019-02-19T00:17:24.917Z,5.42
2019-02-19T00:19:51.995Z,8.20
2019-02-19T00:22:19.012Z,7.75
2019-02-19T00:24:46.097Z,7.00
2019-02-19T00:27:13.014Z,7.80
2019-02-19T00:29:40.075Z,7.25
2019-02-19T00:32:07.192Z,6.22
2019-02-19T00:34:34.136Z,7.92
2019-02-19T00:37:01.091Z,6.97
2019-02-19T00:39:28.004Z,5.83
2019-02-19T00:41:54.900Z,7.15
2019-02-19T00:44:21.940Z,6.50
2019-02-19T00:46:49.038Z,7.08
2019-02-19T00:49:16.159Z,7.05
2019-02-19T00:51:43.270Z,5.65
2019-02-19T00:54:10.218Z,5.35
2019-02-19T00:56:39.015Z,5.95
2019-02-19T00:59:06.018Z,6.70
2019-02-19T01:01:33.002Z,6.80
2019-02-19T01:04:00.029Z,6.83
2019-02-19T01:06:27.056Z,5.25
2019-02-19T01:08:54.274Z,9.25
2019-02-19T01:11:22.628Z,7.00
2019-02-19T01:13:49.653Z,5.85
2019-02-19T01:16:16.618Z,10.18
2019-02-19T01:18:43.606Z,11.08
2019-02-19T01:21:10.665Z,8.13
2019-02-19T01:23:37.613Z,6.53
2019-02-19T01:26:04.556Z,8.05
2019-02-19T01:28:31.514Z,8.53
2019-02-19T01:30:58.587Z,8.85
2019-02-19T01:33:27.423Z,8.00
2019-02-19T01:35:54.409Z,6.37
2019-02-19T01:38:21.374Z,6.95
2019-02-19T01:40:48.255Z,7.10
2019-02-19T01:43:15.132Z,6.47
2019-02-19T01:45:42.066Z,7.33
2019-02-19T01:48:08.953Z,7.15
2019-02-19T01:50:35.888Z,6.33
2019-02-19T01:53:02.892Z,8.35
2019-02-19T01:55:29.818Z,5.62
2019-02-19T01:57:56.699Z,7.47
2019-02-19T02:00:23.731Z,6.42
2019-02-19T02:02:50.620Z,6.42
2019-02-19T02:05:17.528Z,6.62
2019-02-19T02:07:44.557Z,6.62
2019-02-19T02:10:11.615Z,6.80
2019-02-19T02:12:38.514Z,11.40
2019-02-19T02:15:05.689Z,6.97
2019-02-19T02:17:32.710Z,6.17
2019-02-19T02:19:59.649Z,7.30
2019-02-19T02:22:26.597Z,6.90
2019-02-19T02:24:53.513Z,10.35
2019-02-19T02:27:20.425Z,9.33
2019-02-19T02:29:47.486Z,8.18
2019-02-19T02:32:14.521Z,6.85
2019-02-19T02:34:41.493Z,9.78
2019-02-19T02:37:08.405Z,7.15
2019-02-19T02:39:35.452Z,8.28
2019-02-19T02:42:02.483Z,7.20
2019-02-19T02:44:29.470Z,7.03
2019-02-19T02:46:56.393Z,11.10
2019-02-19T02:49:23.271Z,6.62
2019-02-19T02:51:50.289Z,7.20
2019-02-19T02:54:17.194Z,7.80
2019-02-19T02:56:44.157Z,9.58
2019-02-19T02:59:11.065Z,10.32
2019-02-19T03:01:37.943Z,11.05
2019-02-19T03:04:04.944Z,8.03
2019-02-19T03:06:36.249Z,8.20
2019-02-19T03:09:03.997Z,8.25
2019-02-19T03:11:31.025Z,8.93
2019-02-19T03:13:57.896Z,7.17
2019-02-19T03:16:24.857Z,7.03
2019-02-19T03:18:51.753Z,9.13
2019-02-19T03:21:18.673Z,10.43
2019-02-19T03:23:45.648Z,9.45
2019-02-19T03:26:12.625Z,7.58
2019-02-19T03:28:39.664Z,9.08
2019-02-19T03:31:06.531Z,8.88
2019-02-19T03:33:33.463Z,9.05
2019-02-19T03:36:00.517Z,10.98
2019-02-19T03:38:27.380Z,8.08
2019-02-19T03:40:54.305Z,9.60
2019-02-19T03:43:21.320Z,6.83
2019-02-19T03:45:48.328Z,11.95
2019-02-19T03:48:15.238Z,7.85
2019-02-19T03:50:42.156Z,8.65
2019-02-19T03:53:09.055Z,8.40
2019-02-19T03:55:35.923Z,10.95
2019-02-19T03:58:02.963Z,8.00
2019-02-19T04:00:29.838Z,7.90
2019-02-19T04:02:56.883Z,7.40
2019-02-19T04:05:23.880Z,7.85
2019-02-19T04:07:50.980Z,14.75
2019-02-19T04:10:17.848Z,8.20
2019-02-19T04:12:45.140Z,9.90
2019-02-19T04:15:12.105Z,14.83
2019-02-19T04:17:39.105Z,11.65
2019-02-19T04:20:06.702Z,8.30
2019-02-19T04:22:33.668Z,9.25
2019-02-19T04:25:00.644Z,10.65
2019-02-19T04:27:28.352Z,12.25
2019-02-19T04:29:55.369Z,9.78
2019-02-19T04:32:22.424Z,12.18
2019-02-19T04:34:49.424Z,8.25
2019-02-19T04:37:16.290Z,8.53
2019-02-19T04:39:43.301Z,10.50
2019-02-19T04:42:10.226Z,9.00
2019-02-19T04:44:37.202Z,10.70
2019-02-19T04:47:04.218Z,9.45
2019-02-19T04:49:31.077Z,11.28
2019-02-19T04:51:58.032Z,10.18
2019-02-19T04:54:24.915Z,10.18
2019-02-19T04:56:51.884Z,8.50
2019-02-19T04:59:18.833Z,11.25
2019-02-19T05:01:45.769Z,10.40
2019-02-19T05:04:12.741Z,10.90
2019-02-19T05:06:39.685Z,8.45
2019-02-19T05:09:06.556Z,12.18
2019-02-19T05:11:33.614Z,9.38
2019-02-19T05:14:00.626Z,11.83
2019-02-19T05:16:27.547Z,10.53
2019-02-19T05:18:54.579Z,11.75
2019-02-19T05:21:21.615Z,16.73
2019-02-19T05:23:48.628Z,9.88
2019-02-19T05:26:15.636Z,8.58
2019-02-19T05:28:42.635Z,7.85
2019-02-19T05:31:09.608Z,9.33
2019-02-19T05:33:36.525Z,10.23
2019-02-19T05:36:03.425Z,10.10
2019-02-19T05:38:30.338Z,7.83
2019-02-19T05:40:57.221Z,11.00
2019-02-19T05:43:24.118Z,13.10
2019-02-19T05:45:51.149Z,11.85
2019-02-19T05:48:18.031Z,13.38
2019-02-19T05:50:45.027Z,9.73
2019-02-19T05:53:12.045Z,16.20
2019-02-19T05:55:38.996Z,10.53
2019-02-19T05:58:06.037Z,9.63
2019-02-19T06:00:33.033Z,10.82
2019-02-19T06:02:59.993Z,18.00
2019-02-19T06:05:27.002Z,14.93
2019-02-19T06:07:53.888Z,13.40
2019-02-19T06:10:20.818Z,9.55
2019-02-19T06:12:47.754Z,13.62
2019-02-19T06:15:14.761Z,9.08
2019-02-19T06:17:41.693Z,11.33
2019-02-19T06:20:08.716Z,12.33
2019-02-19T06:22:35.702Z,11.55
2019-02-19T06:25:03.190Z,11.93
2019-02-19T06:27:30.158Z,10.53
2019-02-19T06:29:57.162Z,11.40
2019-02-19T06:32:24.069Z,11.90
2019-02-19T06:34:50.954Z,15.53
2019-02-19T06:37:17.889Z,15.32
2019-02-19T06:39:46.789Z,29.85
2019-02-19T06:42:13.723Z,15.40
2019-02-19T06:44:41.384Z,14.20
2019-02-19T06:47:08.406Z,11.78
2019-02-19T06:49:35.406Z,10.63
2019-02-19T06:52:02.732Z,9.68
2019-02-19T06:54:29.735Z,9.60
2019-02-19T06:56:56.641Z,13.38
2019-02-19T06:59:23.573Z,9.98
2019-02-19T07:01:52.363Z,16.35
2019-02-19T07:04:24.577Z,13.80
2019-02-19T07:06:51.456Z,12.90
2019-02-19T07:09:18.418Z,11.15
2019-02-19T07:11:45.369Z,16.15
2019-02-19T07:14:12.428Z,9.48
2019-02-19T07:16:39.388Z,10.48
2019-02-19T07:19:06.326Z,8.33
2019-02-19T07:21:33.236Z,11.08
2019-02-19T07:24:04.347Z,9.90
2019-02-19T07:26:29.019Z,10.15
2019-02-19T07:28:56.024Z,10.32
2019-02-19T07:31:23.037Z,10.13
2019-02-19T07:33:49.946Z,9.65
2019-02-19T07:36:16.883Z,9.33
2019-02-19T07:38:43.966Z,8.33
2019-02-19T07:41:11.031Z,12.90
2019-02-19T07:43:38.008Z,8.23
2019-02-19T07:46:05.063Z,9.70
2019-02-19T07:48:32.030Z,9.90
2019-02-19T07:50:58.956Z,9.75
2019-02-19T07:53:25.876Z,13.62
2019-02-19T07:55:54.682Z,16.40
2019-02-19T07:58:21.595Z,18.27
2019-02-19T08:00:48.461Z,12.45
2019-02-19T08:03:15.419Z,10.88
2019-02-19T08:05:42.354Z,12.18
2019-02-19T08:08:09.289Z,10.65
2019-02-19T08:10:36.284Z,10.95
2019-02-19T08:13:03.223Z,17.55
2019-02-19T08:15:30.322Z,12.30
2019-02-19T08:17:57.190Z,12.88
2019-02-19T08:20:24.113Z,18.92
2019-02-19T08:22:51.178Z,22.85
2019-02-19T08:25:18.079Z,16.12
2019-02-19T08:27:45.049Z,22.13
2019-02-19T08:30:12.051Z,20.77
2019-02-19T08:32:39.178Z,31.82
2019-02-19T08:35:06.205Z,62.78
2019-02-19T08:37:33.098Z,66.72
2019-02-19T08:40:00.279Z,50.25
2019-02-19T08:42:27.419Z,32.80
2019-02-19T08:44:54.329Z,42.23
2019-02-19T08:47:21.228Z,33.98
2019-02-19T08:49:48.148Z,34.88
2019-02-19T08:52:15.110Z,26.75
2019-02-19T08:54:42.029Z,31.30
2019-02-19T08:57:09.024Z,37.38
2019-02-19T08:59:36.131Z,30.45
2019-02-19T09:02:03.132Z,29.05
2019-02-19T09:04:30.255Z,26.97
2019-02-19T09:06:57.325Z,24.27
2019-02-19T09:09:24.321Z,24.02
2019-02-19T09:11:51.231Z,22.22
2019-02-19T09:14:18.184Z,22.17
2019-02-19T09:16:45.180Z,21.40
2019-02-19T09:19:12.066Z,24.12
2019-02-19T09:21:39.457Z,23.50
2019-02-19T09:24:09.492Z,19.48
2019-02-19T09:26:35.211Z,21.17
2019-02-19T09:29:02.174Z,19.25
2019-02-19T09:31:29.060Z,22.90
2019-02-19T09:33:56.101Z,26.93
2019-02-19T09:36:22.989Z,20.25
2019-02-19T09:38:49.921Z,21.45
2019-02-19T09:41:16.916Z,21.35
2019-02-19T09:43:43.954Z,18.73
2019-02-19T09:46:10.877Z,16.73
2019-02-19T09:48:37.777Z,18.25
2019-02-19T09:51:04.761Z,16.82
2019-02-19T09:53:31.656Z,16.30
2019-02-19T09:55:58.652Z,21.80
2019-02-19T09:58:25.523Z,18.82
2019-02-19T10:00:52.592Z,16.30
2019-02-19T10:03:21.050Z,15.98
2019-02-19T10:05:48.226Z,20.92
2019-02-19T10:08:15.257Z,16.27
2019-02-19T10:10:42.234Z,17.82
2019-02-19T10:13:09.254Z,15.20
2019-02-19T10:15:36.272Z,13.88
2019-02-19T10:18:09.867Z,16.05
2019-02-19T10:20:31.969Z,19.17
2019-02-19T10:22:58.884Z,20.82
2019-02-19T10:25:25.868Z,14.87
2019-02-19T10:27:52.827Z,13.30
2019-02-19T10:30:19.878Z,18.05
2019-02-19T10:32:46.852Z,18.67
2019-02-19T10:35:13.918Z,16.30
2019-02-19T10:37:40.950Z,19.65
2019-02-19T10:40:10.196Z,16.75
2019-02-19T10:42:37.196Z,17.17
2019-02-19T10:45:04.658Z,15.45
2019-02-19T10:47:31.580Z,16.07
2019-02-19T10:49:58.460Z,14.65
2019-02-19T10:52:25.528Z,15.58
2019-02-19T10:54:52.708Z,12.68
2019-02-19T10:57:19.644Z,15.50
2019-02-19T10:59:47.724Z,13.53
2019-02-19T11:02:14.858Z,15.90
2019-02-19T11:04:41.958Z,15.55
2019-02-19T11:07:09.202Z,13.72
2019-02-19T11:09:36.197Z,14.38
2019-02-19T11:12:03.264Z,21.25
2019-02-19T11:14:30.244Z,16.42
2019-02-19T11:16:57.236Z,13.43
2019-02-19T11:19:24.230Z,16.57
2019-02-19T11:21:51.273Z,12.95
2019-02-19T11:24:18.281Z,13.25
2019-02-19T11:26:45.176Z,13.38
2019-02-19T11:29:12.210Z,12.30
2019-02-19T11:31:39.089Z,14.60
2019-02-19T11:34:06.008Z,12.60
2019-02-19T11:36:32.907Z,12.73
2019-02-19T11:38:59.845Z,12.20
2019-02-19T11:41:26.781Z,13.18
2019-02-19T11:43:53.768Z,16.85
2019-02-19T11:46:20.690Z,18.10
2019-02-19T11:48:47.649Z,13.83
2019-02-19T11:51:14.780Z,17.77
2019-02-19T11:53:41.825Z,15.75
2019-02-19T11:56:08.705Z,14.80
2019-02-19T11:58:35.639Z,14.23
2019-02-19T12:01:03.678Z,14.60
2019-02-19T12:03:30.691Z,12.85
2019-02-19T12:05:57.727Z,14.58
2019-02-19T12:08:24.624Z,16.93
2019-02-19T12:10:51.709Z,18.87
2019-02-19T12:13:18.721Z,23.52
2019-02-19T12:15:45.782Z,16.12
2019-02-19T12:18:12.714Z,15.65
2019-02-19T12:20:39.689Z,11.80
2019-02-19T12:23:06.609Z,12.35
2019-02-19T12:25:33.581Z,11.70
2019-02-19T12:28:00.480Z,13.10
2019-02-19T12:30:27.515Z,10.38
2019-02-19T12:32:54.513Z,10.35
2019-02-19T12:35:21.396Z,9.90
2019-02-19T12:37:48.355Z,9.43
2019-02-19T12:40:15.388Z,10.95
2019-02-19T12:42:42.436Z,10.43
2019-02-19T12:45:09.799Z,9.70
2019-02-19T12:47:36.733Z,7.37
2019-02-19T12:50:04.434Z,13.20
2019-02-19T12:52:31.475Z,8.35
2019-02-19T12:54:58.535Z,15.60
2019-02-19T12:57:25.599Z,6.90
2019-02-19T12:59:56.606Z,7.20
2019-02-19T13:02:21.535Z,7.80
2019-02-19T13:04:48.504Z,5.80
2019-02-19T13:07:15.503Z,4.60
2019-02-19T13:09:42.512Z,4.97
2019-02-19T13:12:10.610Z,6.65
2019-02-19T13:14:38.031Z,3.60
2019-02-19T13:17:05.179Z,2.63
2019-02-19T13:19:32.525Z,3.77
2019-02-19T13:21:59.497Z,2.60
2019-02-19T13:24:26.410Z,2.60
2019-02-19T13:26:53.487Z,3.37
2019-02-19T13:29:20.886Z,11.97
2019-02-19T13:31:47.842Z,3.63
2019-02-19T13:34:14.717Z,2.87
2019-02-19T13:36:42.024Z,2.50
2019-02-19T13:39:09.171Z,3.20
2019-02-19T13:41:37.056Z,3.60
2019-02-19T13:44:04.216Z,3.80
2019-02-19T13:46:31.134Z,3.20
2019-02-19T13:48:58.294Z,5.07
2019-02-19T13:51:25.452Z,4.77
2019-02-19T13:53:57.352Z,3.00
2019-02-19T13:56:24.249Z,3.90
2019-02-19T13:58:51.345Z,3.20
2019-02-19T14:01:18.767Z,3.97
2019-02-19T14:03:45.726Z,2.30
2019-02-19T14:06:12.776Z,3.87
2019-02-19T14:08:39.798Z,3.20
2019-02-19T14:11:06.751Z,4.80
2019-02-19T14:13:33.905Z,3.30
2019-02-19T14:16:14.829Z,4.17
2019-02-19T14:18:55.363Z,3.80
2019-02-19T14:21:33.401Z,4.30
2019-02-19T14:24:18.994Z,2.37
2019-02-19T14:26:59.678Z,3.03
2019-02-19T14:29:45.541Z,3.67
2019-02-19T14:32:29.946Z,3.20
2019-02-19T14:35:01.947Z,4.07
2019-02-19T14:37:47.540Z,4.10
2019-02-19T14:40:22.722Z,4.20
2019-02-19T14:43:04.056Z,6.90
2019-02-19T14:45:41.758Z,4.90
2019-02-19T14:48:25.821Z,2.80
2019-02-19T14:51:09.849Z,3.00
2019-02-19T14:53:45.051Z,2.83
2019-02-19T14:56:25.893Z,3.00
2019-02-19T14:58:54.765Z,3.70
2019-02-19T15:01:26.576Z,7.23
2019-02-19T15:04:12.294Z,3.03
2019-02-19T15:06:50.300Z,5.60
2019-02-19T15:09:34.601Z,5.23
2019-02-19T15:12:06.418Z,4.90
2019-02-19T15:14:35.420Z,4.90
2019-02-19T15:17:13.149Z,5.70
2019-02-19T15:19:42.066Z,5.90
2019-02-19T15:22:13.990Z,4.97
2019-02-19T15:24:59.460Z,2.70
2019-02-19T15:27:43.757Z,3.70
2019-02-19T15:30:15.506Z,3.37
2019-02-19T15:32:44.442Z,3.13
2019-02-19T15:35:28.581Z,2.93
2019-02-19T15:38:00.619Z,3.20
2019-02-19T15:40:32.393Z,3.10
2019-02-19T15:43:18.150Z,3.93
2019-02-19T15:46:05.313Z,4.80
2019-02-19T15:48:46.377Z,3.03
2019-02-19T15:51:31.898Z,3.27
2019-02-19T15:54:01.401Z,3.50
2019-02-19T15:56:30.232Z,3.30
2019-02-19T15:58:59.165Z,3.77
2019-02-19T16:01:37.041Z,7.53
2019-02-19T16:04:06.125Z,6.53
2019-02-19T16:06:35.156Z,3.98
2019-02-19T16:09:11.181Z,3.00
2019-02-19T16:11:40.096Z,2.72
2019-02-19T16:14:16.694Z,3.17
2019-02-19T16:16:48.836Z,2.73
2019-02-19T16:19:17.830Z,7.25
2019-02-19T16:21:46.831Z,3.93
2019-02-19T16:24:33.666Z,3.97
2019-02-19T16:27:02.723Z,4.37
2019-02-19T16:29:37.719Z,4.60
2019-02-19T16:32:06.635Z,7.65
2019-02-19T16:34:35.690Z,4.17
2019-02-19T16:37:04.581Z,4.55
2019-02-19T16:39:42.761Z,4.03
2019-02-19T16:42:28.460Z,3.45
2019-02-19T16:44:57.629Z,8.45
2019-02-19T16:47:26.674Z,4.15
2019-02-19T16:50:07.357Z,5.53
2019-02-19T16:52:33.802Z,5.03
2019-02-19T16:55:05.875Z,4.05
2019-02-19T16:57:35.220Z,3.45
2019-02-19T17:00:11.251Z,4.30
2019-02-19T17:02:46.347Z,4.47
2019-02-19T17:05:15.279Z,5.20
2019-02-19T17:07:54.663Z,11.12
2019-02-19T17:10:26.623Z,4.03
2019-02-19T17:12:59.688Z,4.03
2019-02-19T17:15:30.089Z,4.17
2019-02-19T17:17:59.065Z,3.90
2019-02-19T17:20:29.437Z,4.78
2019-02-19T17:22:58.682Z,3.25
2019-02-19T17:25:27.613Z,6.67
2019-02-19T17:28:02.433Z,3.75
2019-02-19T17:30:33.092Z,3.98
2019-02-19T17:33:20.142Z,6.70
2019-02-19T17:36:01.309Z,4.58
2019-02-19T17:38:48.257Z,4.25
2019-02-19T17:41:19.877Z,5.03
2019-02-19T17:43:49.036Z,8.48
2019-02-19T17:46:30.151Z,6.75
2019-02-19T17:48:59.195Z,7.58
2019-02-19T17:51:28.178Z,8.68
2019-02-19T17:54:06.466Z,7.40
2019-02-19T17:56:50.424Z,10.30
2019-02-19T17:59:22.405Z,8.48
2019-02-19T18:01:51.329Z,9.90
2019-02-19T18:04:20.271Z,11.73
2019-02-19T18:06:51.986Z,7.33
2019-02-19T18:09:36.358Z,6.80
2019-02-19T18:12:05.288Z,6.45
2019-02-19T18:14:46.375Z,10.78
2019-02-19T18:17:20.833Z,8.18
2019-02-19T18:19:48.138Z,6.37
2019-02-19T18:22:15.037Z,10.50
2019-02-19T18:24:44.169Z,6.42
2019-02-19T18:27:11.230Z,7.67
2019-02-19T18:29:38.217Z,8.45
2019-02-19T18:32:05.173Z,6.17
2019-02-19T18:34:32.225Z,5.62
2019-02-19T18:36:59.263Z,8.83
2019-02-19T18:39:26.345Z,8.88
2019-02-19T18:41:53.386Z,7.78
2019-02-19T18:44:20.682Z,5.20
2019-02-19T18:46:47.704Z,4.40
2019-02-19T18:49:15.323Z,7.30
2019-02-19T18:51:42.348Z,5.12
2019-02-19T18:54:12.085Z,6.95
2019-02-19T18:56:40.298Z,5.12
2019-02-19T18:59:08.622Z,5.80
2019-02-19T19:01:37.889Z,6.50
2019-02-19T19:04:04.982Z,6.22
2019-02-19T19:06:31.963Z,5.40
2019-02-19T19:08:59.022Z,4.40
2019-02-19T19:11:26.081Z,9.13
2019-02-19T19:13:53.261Z,5.03
2019-02-19T19:16:20.422Z,7.00
2019-02-19T19:18:47.613Z,9.35
2019-02-19T19:21:14.924Z,8.88
2019-02-19T19:23:41.839Z,4.72
2019-02-19T19:26:09.021Z,5.53
2019-02-19T19:28:35.914Z,8.93
2019-02-19T19:31:02.985Z,5.28
2019-02-19T19:33:30.201Z,5.42
2019-02-19T19:35:59.396Z,5.20
2019-02-19T19:38:26.572Z,8.15
2019-02-19T19:40:53.830Z,8.93
2019-02-19T19:43:21.047Z,5.22
2019-02-19T19:45:48.405Z,5.08
2019-02-19T19:48:15.558Z,6.05
2019-02-19T19:50:42.523Z,4.67
2019-02-19T19:53:09.598Z,10.13
2019-02-19T19:55:36.628Z,9.55
2019-02-19T19:58:03.778Z,11.83
2019-02-19T20:00:30.859Z,6.75
2019-02-19T20:02:59.922Z,13.13
2019-02-19T20:05:27.037Z,7.47
2019-02-19T20:07:55.108Z,12.68
2019-02-19T20:10:22.363Z,7.67
2019-02-19T20:12:49.404Z,8.30
2019-02-19T20:15:16.425Z,6.08
2019-02-19T20:17:43.605Z,6.12
2019-02-19T20:20:10.884Z,8.88
2019-02-19T20:22:38.072Z,5.22
2019-02-19T20:25:05.717Z,7.78
2019-02-19T20:27:33.012Z,6.33
2019-02-19T20:30:00.266Z,10.85
2019-02-19T20:32:27.470Z,4.75
2019-02-19T20:34:54.681Z,5.92
2019-02-19T20:37:22.285Z,7.03
2019-02-19T20:39:49.589Z,7.05
2019-02-19T20:42:16.746Z,4.25
2019-02-19T20:44:43.947Z,5.45
2019-02-19T20:47:12.600Z,8.03
2019-02-19T20:49:39.764Z,7.78
2019-02-19T20:52:06.900Z,13.03
2019-02-19T20:54:33.864Z,7.72
2019-02-19T20:57:00.821Z,6.40
2019-02-19T20:59:29.044Z,4.72
2019-02-19T21:01:56.013Z,5.62
2019-02-19T21:04:23.143Z,4.47
2019-02-19T21:06:51.216Z,7.42
2019-02-19T21:09:18.674Z,5.70
2019-02-19T21:11:45.732Z,6.72
2019-02-19T21:14:12.842Z,5.33
2019-02-19T21:16:39.883Z,8.55
2019-02-19T21:19:07.139Z,10.60
2019-02-19T21:21:34.495Z,6.35
2019-02-19T21:24:01.890Z,8.35
2019-02-19T21:26:30.056Z,14.45
2019-02-19T21:28:57.682Z,8.13
2019-02-19T21:31:24.703Z,8.55
2019-02-19T21:33:51.613Z,7.97
2019-02-19T21:36:18.579Z,7.35
2019-02-19T21:38:45.612Z,8.15
2019-02-19T21:41:12.657Z,6.80
2019-02-19T21:43:39.697Z,10.48
2019-02-19T21:46:06.749Z,6.92
2019-02-19T21:48:33.867Z,7.65
2019-02-19T21:51:00.785Z,7.17
2019-02-19T21:53:27.885Z,9.60
2019-02-19T21:55:54.860Z,10.15
2019-02-19T21:58:21.906Z,8.23
2019-02-19T22:00:48.949Z,9.40
2019-02-19T22:03:15.910Z,13.60
2019-02-19T22:05:43.007Z,10.98
2019-02-19T22:08:10.099Z,6.58
2019-02-19T22:10:37.180Z,10.23
2019-02-19T22:13:04.221Z,6.25
2019-02-19T22:15:31.249Z,9.80
2019-02-19T22:17:58.298Z,14.03
2019-02-19T22:20:32.858Z,8.08
2019-02-19T22:22:59.869Z,10.35
2019-02-19T22:25:27.016Z,10.58
2019-02-19T22:27:53.930Z,9.80
2019-02-19T22:30:20.852Z,10.45
2019-02-19T22:32:47.818Z,10.58
2019-02-19T22:35:14.854Z,12.78
2019-02-19T22:37:41.845Z,10.93
2019-02-19T22:40:08.889Z,10.40
2019-02-19T22:42:36.149Z,14.87
2019-02-19T22:45:03.323Z,15.93
2019-02-19T22:47:30.369Z,12.07
2019-02-19T22:49:57.337Z,10.10
2019-02-19T22:52:24.329Z,12.68
2019-02-19T22:54:59.260Z,10.70
2019-02-19T22:57:26.251Z,17.48
2019-02-19T22:59:53.329Z,12.63
2019-02-19T23:02:20.927Z,15.60
2019-02-19T23:04:48.025Z,18.17
2019-02-19T23:07:14.981Z,16.75
2019-02-19T23:09:41.920Z,10.65
2019-02-19T23:12:08.843Z,13.45
2019-02-19T23:14:35.756Z,16.30
2019-02-19T23:17:03.608Z,11.03
2019-02-19T23:19:30.548Z,19.92
2019-02-19T23:21:57.750Z,19.42
2019-02-19T23:24:24.717Z,20.17
2019-02-19T23:26:51.735Z,20.05
2019-02-19T23:29:18.691Z,10.98
2019-02-19T23:31:45.689Z,10.05
2019-02-19T23:34:12.699Z,9.90
2019-02-19T23:36:47.631Z,11.38
2019-02-19T23:39:14.637Z,9.00
2019-02-19T23:41:41.604Z,11.43
2019-02-19T23:44:08.551Z,12.60
2019-02-19T23:46:35.467Z,10.63
2019-02-19T23:49:02.593Z,7.62
2019-02-19T23:51:29.820Z,8.83
2019-02-19T23:53:58.692Z,8.10
2019-02-19T23:56:25.910Z,12.40
2019-02-19T23:58:53.247Z,18.82
